sensor_id;sensor_type;location;lat;lon;timestamp;P1;durP1;ratioP1;P2;durP2;ratioP2
16460;SDS011;8341;42.048;24.650;2023-03-31T00:01:39;11.93;;;7.65;;
16460;SDS011;8341;42.048;24.650;2023-03-31T00:04:07;17.52;;;9.65;;
16460;SDS011;8341;42.048;24.650;2023-03-31T00:06:37;17.52;;;9.00;;
16460;SDS011;8341;42.048;24.650;2023-03-31T00:09:06;12.70;;;7.85;;
16460;SDS011;8341;42.048;24.650;2023-03-31T00:11:35;11.45;;;6.40;;
16460;SDS011;8341;42.048;24.650;2023-03-31T00:14:03;11.85;;;5.60;;
16460;SDS011;8341;42.048;24.650;2023-03-31T00:16:32;9.07;;;5.10;;
16460;SDS011;8341;42.048;24.650;2023-03-31T00:18:59;11.25;;;5.70;;
16460;SDS011;8341;42.048;24.650;2023-03-31T00:21:27;8.88;;;4.82;;
16460;SDS011;8341;42.048;24.650;2023-03-31T00:23:58;13.00;;;4.97;;
16460;SDS011;8341;42.048;24.650;2023-03-31T00:26:27;9.02;;;4.60;;
16460;SDS011;8341;42.048;24.650;2023-03-31T00:28:55;6.55;;;4.32;;
16460;SDS011;8341;42.048;24.650;2023-03-31T00:31:23;6.95;;;4.63;;
16460;SDS011;8341;42.048;24.650;2023-03-31T00:33:52;6.25;;;4.28;;
16460;SDS011;8341;42.048;24.650;2023-03-31T00:36:20;6.22;;;3.97;;
16460;SDS011;8341;42.048;24.650;2023-03-31T00:38:52;4.75;;;3.83;;
16460;SDS011;8341;42.048;24.650;2023-03-31T00:41:20;7.13;;;4.15;;
16460;SDS011;8341;42.048;24.650;2023-03-31T00:44:00;4.32;;;3.63;;
16460;SDS011;8341;42.048;24.650;2023-03-31T00:46:33;6.57;;;4.10;;
16460;SDS011;8341;42.048;24.650;2023-03-31T00:49:07;4.72;;;3.63;;
16460;SDS011;8341;42.048;24.650;2023-03-31T00:51:42;3.42;;;2.92;;
16460;SDS011;8341;42.048;24.650;2023-03-31T00:54:10;3.08;;;2.45;;
16460;SDS011;8341;42.048;24.650;2023-03-31T00:56:38;3.13;;;2.67;;
16460;SDS011;8341;42.048;24.650;2023-03-31T00:59:10;2.88;;;2.53;;
16460;SDS011;8341;42.048;24.650;2023-03-31T01:01:38;3.90;;;2.65;;
16460;SDS011;8341;42.048;24.650;2023-03-31T01:04:11;2.70;;;1.92;;
16460;SDS011;8341;42.048;24.650;2023-03-31T01:06:43;2.85;;;2.30;;
16460;SDS011;8341;42.048;24.650;2023-03-31T01:09:21;2.70;;;2.13;;
16460;SDS011;8341;42.048;24.650;2023-03-31T01:11:49;3.58;;;2.40;;
16460;SDS011;8341;42.048;24.650;2023-03-31T01:14:16;3.33;;;2.05;;
16460;SDS011;8341;42.048;24.650;2023-03-31T01:16:43;2.83;;;2.50;;
16460;SDS011;8341;42.048;24.650;2023-03-31T01:19:16;4.35;;;3.00;;
16460;SDS011;8341;42.048;24.650;2023-03-31T01:28:04;8.07;;;5.70;;
16460;SDS011;8341;42.048;24.650;2023-03-31T01:33:55;6.32;;;4.18;;
16460;SDS011;8341;42.048;24.650;2023-03-31T01:39:51;4.00;;;3.38;;
16460;SDS011;8341;42.048;24.650;2023-03-31T01:42:33;7.25;;;3.53;;
16460;SDS011;8341;42.048;24.650;2023-03-31T01:45:04;4.78;;;2.95;;
16460;SDS011;8341;42.048;24.650;2023-03-31T01:47:44;3.60;;;2.90;;
16460;SDS011;8341;42.048;24.650;2023-03-31T01:50:21;3.92;;;2.88;;
16460;SDS011;8341;42.048;24.650;2023-03-31T01:52:55;4.47;;;2.95;;
16460;SDS011;8341;42.048;24.650;2023-03-31T01:55:30;3.78;;;2.75;;
16460;SDS011;8341;42.048;24.650;2023-03-31T01:58:04;5.55;;;2.95;;
16460;SDS011;8341;42.048;24.650;2023-03-31T02:00:35;3.20;;;2.72;;
16460;SDS011;8341;42.048;24.650;2023-03-31T02:03:08;4.57;;;3.00;;
16460;SDS011;8341;42.048;24.650;2023-03-31T02:05:43;4.28;;;2.80;;
16460;SDS011;8341;42.048;24.650;2023-03-31T02:08:15;3.88;;;3.47;;
16460;SDS011;8341;42.048;24.650;2023-03-31T02:10:48;3.92;;;3.13;;
16460;SDS011;8341;42.048;24.650;2023-03-31T02:13:18;7.85;;;3.30;;
16460;SDS011;8341;42.048;24.650;2023-03-31T02:15:49;6.90;;;3.42;;
16460;SDS011;8341;42.048;24.650;2023-03-31T02:18:22;4.47;;;2.78;;
16460;SDS011;8341;42.048;24.650;2023-03-31T02:20:55;4.65;;;3.17;;
16460;SDS011;8341;42.048;24.650;2023-03-31T02:23:24;5.20;;;3.05;;
16460;SDS011;8341;42.048;24.650;2023-03-31T02:25:58;4.10;;;2.90;;
16460;SDS011;8341;42.048;24.650;2023-03-31T02:28:28;4.60;;;2.95;;
16460;SDS011;8341;42.048;24.650;2023-03-31T02:31:00;4.65;;;2.50;;
16460;SDS011;8341;42.048;24.650;2023-03-31T02:33:32;4.28;;;2.50;;
16460;SDS011;8341;42.048;24.650;2023-03-31T02:35:59;5.88;;;2.65;;
16460;SDS011;8341;42.048;24.650;2023-03-31T02:38:27;2.60;;;2.40;;
16460;SDS011;8341;42.048;24.650;2023-03-31T02:40:59;6.25;;;3.10;;
16460;SDS011;8341;42.048;24.650;2023-03-31T02:43:26;3.60;;;2.90;;
16460;SDS011;8341;42.048;24.650;2023-03-31T02:45:54;3.20;;;2.90;;
16460;SDS011;8341;42.048;24.650;2023-03-31T02:48:22;5.15;;;2.67;;
16460;SDS011;8341;42.048;24.650;2023-03-31T02:51:00;4.30;;;2.97;;
16460;SDS011;8341;42.048;24.650;2023-03-31T02:53:56;5.13;;;2.75;;
16460;SDS011;8341;42.048;24.650;2023-03-31T02:56:38;3.72;;;2.63;;
16460;SDS011;8341;42.048;24.650;2023-03-31T03:02:09;3.70;;;2.50;;
16460;SDS011;8341;42.048;24.650;2023-03-31T03:07:40;7.30;;;4.80;;
16460;SDS011;8341;42.048;24.650;2023-03-31T03:10:16;5.70;;;4.60;;
16460;SDS011;8341;42.048;24.650;2023-03-31T03:12:55;8.60;;;4.72;;
16460;SDS011;8341;42.048;24.650;2023-03-31T03:15:29;5.22;;;3.33;;
16460;SDS011;8341;42.048;24.650;2023-03-31T03:18:00;8.32;;;4.60;;
16460;SDS011;8341;42.048;24.650;2023-03-31T03:20:29;12.40;;;4.97;;
16460;SDS011;8341;42.048;24.650;2023-03-31T03:22:58;16.30;;;8.52;;
16460;SDS011;8341;42.048;24.650;2023-03-31T03:25:25;25.30;;;15.23;;
16460;SDS011;8341;42.048;24.650;2023-03-31T03:27:55;6.78;;;4.57;;
16460;SDS011;8341;42.048;24.650;2023-03-31T03:30:22;8.20;;;5.47;;
16460;SDS011;8341;42.048;24.650;2023-03-31T03:32:49;5.00;;;3.20;;
16460;SDS011;8341;42.048;24.650;2023-03-31T03:35:18;4.70;;;3.20;;
16460;SDS011;8341;42.048;24.650;2023-03-31T03:37:45;2.33;;;2.13;;
16460;SDS011;8341;42.048;24.650;2023-03-31T03:40:12;3.55;;;2.75;;
16460;SDS011;8341;42.048;24.650;2023-03-31T03:42:39;5.10;;;3.03;;
16460;SDS011;8341;42.048;24.650;2023-03-31T03:45:08;3.67;;;2.72;;
16460;SDS011;8341;42.048;24.650;2023-03-31T03:47:36;4.03;;;3.13;;
16460;SDS011;8341;42.048;24.650;2023-03-31T03:50:03;6.35;;;2.95;;
16460;SDS011;8341;42.048;24.650;2023-03-31T03:52:31;4.22;;;2.78;;
16460;SDS011;8341;42.048;24.650;2023-03-31T03:54:58;5.47;;;3.30;;
16460;SDS011;8341;42.048;24.650;2023-03-31T03:57:26;4.70;;;2.88;;
16460;SDS011;8341;42.048;24.650;2023-03-31T03:59:53;2.63;;;2.20;;
16460;SDS011;8341;42.048;24.650;2023-03-31T04:02:21;2.72;;;2.42;;
16460;SDS011;8341;42.048;24.650;2023-03-31T04:04:48;5.90;;;4.00;;
16460;SDS011;8341;42.048;24.650;2023-03-31T04:07:16;9.60;;;6.10;;
16460;SDS011;8341;42.048;24.650;2023-03-31T04:09:43;7.57;;;5.00;;
16460;SDS011;8341;42.048;24.650;2023-03-31T04:12:10;5.05;;;3.95;;
16460;SDS011;8341;42.048;24.650;2023-03-31T04:14:38;6.90;;;4.53;;
16460;SDS011;8341;42.048;24.650;2023-03-31T04:17:05;3.22;;;2.38;;
16460;SDS011;8341;42.048;24.650;2023-03-31T04:19:36;3.95;;;2.50;;
16460;SDS011;8341;42.048;24.650;2023-03-31T04:22:06;3.10;;;2.50;;
16460;SDS011;8341;42.048;24.650;2023-03-31T04:24:35;4.88;;;3.17;;
16460;SDS011;8341;42.048;24.650;2023-03-31T04:27:03;6.82;;;4.25;;
16460;SDS011;8341;42.048;24.650;2023-03-31T04:29:31;7.72;;;4.35;;
16460;SDS011;8341;42.048;24.650;2023-03-31T04:32:01;3.20;;;2.90;;
16460;SDS011;8341;42.048;24.650;2023-03-31T04:34:28;6.68;;;3.03;;
16460;SDS011;8341;42.048;24.650;2023-03-31T04:37:01;16.25;;;6.32;;
16460;SDS011;8341;42.048;24.650;2023-03-31T04:39:29;7.95;;;5.50;;
16460;SDS011;8341;42.048;24.650;2023-03-31T04:41:56;7.38;;;4.28;;
16460;SDS011;8341;42.048;24.650;2023-03-31T04:44:24;4.68;;;3.30;;
16460;SDS011;8341;42.048;24.650;2023-03-31T04:46:51;8.45;;;3.55;;
16460;SDS011;8341;42.048;24.650;2023-03-31T04:49:19;3.30;;;2.97;;
16460;SDS011;8341;42.048;24.650;2023-03-31T04:51:46;34.95;;;18.90;;
16460;SDS011;8341;42.048;24.650;2023-03-31T04:54:14;24.90;;;15.15;;
16460;SDS011;8341;42.048;24.650;2023-03-31T04:56:42;23.48;;;13.88;;
16460;SDS011;8341;42.048;24.650;2023-03-31T04:59:09;11.15;;;6.55;;
16460;SDS011;8341;42.048;24.650;2023-03-31T05:01:36;75.35;;;34.10;;
16460;SDS011;8341;42.048;24.650;2023-03-31T05:04:03;34.28;;;15.95;;
16460;SDS011;8341;42.048;24.650;2023-03-31T05:06:31;20.88;;;11.43;;
16460;SDS011;8341;42.048;24.650;2023-03-31T05:08:58;17.63;;;9.40;;
16460;SDS011;8341;42.048;24.650;2023-03-31T05:11:27;7.32;;;3.70;;
16460;SDS011;8341;42.048;24.650;2023-03-31T05:13:54;9.27;;;5.00;;
16460;SDS011;8341;42.048;24.650;2023-03-31T05:16:22;7.95;;;4.35;;
16460;SDS011;8341;42.048;24.650;2023-03-31T05:18:49;7.55;;;3.63;;
16460;SDS011;8341;42.048;24.650;2023-03-31T05:21:17;9.27;;;4.40;;
16460;SDS011;8341;42.048;24.650;2023-03-31T05:23:46;8.88;;;5.30;;
16460;SDS011;8341;42.048;24.650;2023-03-31T05:26:14;9.88;;;4.30;;
16460;SDS011;8341;42.048;24.650;2023-03-31T05:28:42;6.35;;;3.70;;
16460;SDS011;8341;42.048;24.650;2023-03-31T05:31:10;7.20;;;3.78;;
16460;SDS011;8341;42.048;24.650;2023-03-31T05:33:41;8.32;;;3.13;;
16460;SDS011;8341;42.048;24.650;2023-03-31T05:36:08;4.03;;;2.40;;
16460;SDS011;8341;42.048;24.650;2023-03-31T05:38:36;5.63;;;3.50;;
16460;SDS011;8341;42.048;24.650;2023-03-31T05:41:07;6.53;;;3.60;;
16460;SDS011;8341;42.048;24.650;2023-03-31T05:43:36;9.43;;;5.00;;
16460;SDS011;8341;42.048;24.650;2023-03-31T05:46:05;5.78;;;3.53;;
16460;SDS011;8341;42.048;24.650;2023-03-31T05:48:32;5.03;;;3.90;;
16460;SDS011;8341;42.048;24.650;2023-03-31T05:50:59;6.75;;;3.78;;
16460;SDS011;8341;42.048;24.650;2023-03-31T05:53:26;3.78;;;2.17;;
16460;SDS011;8341;42.048;24.650;2023-03-31T05:55:57;2.20;;;1.90;;
16460;SDS011;8341;42.048;24.650;2023-03-31T05:58:24;3.70;;;2.17;;
16460;SDS011;8341;42.048;24.650;2023-03-31T06:01:00;2.33;;;1.50;;
16460;SDS011;8341;42.048;24.650;2023-03-31T06:03:31;3.58;;;1.73;;
16460;SDS011;8341;42.048;24.650;2023-03-31T06:05:58;1.98;;;1.45;;
16460;SDS011;8341;42.048;24.650;2023-03-31T06:08:26;2.00;;;1.52;;
16460;SDS011;8341;42.048;24.650;2023-03-31T06:10:53;1.92;;;1.45;;
16460;SDS011;8341;42.048;24.650;2023-03-31T06:13:21;2.83;;;1.60;;
16460;SDS011;8341;42.048;24.650;2023-03-31T06:15:52;3.67;;;1.42;;
16460;SDS011;8341;42.048;24.650;2023-03-31T06:18:19;3.47;;;1.40;;
16460;SDS011;8341;42.048;24.650;2023-03-31T06:20:48;2.05;;;1.50;;
16460;SDS011;8341;42.048;24.650;2023-03-31T06:23:16;6.32;;;2.08;;
16460;SDS011;8341;42.048;24.650;2023-03-31T06:25:43;5.05;;;2.15;;
16460;SDS011;8341;42.048;24.650;2023-03-31T06:28:10;6.72;;;1.30;;
16460;SDS011;8341;42.048;24.650;2023-03-31T06:30:37;3.75;;;1.55;;
16460;SDS011;8341;42.048;24.650;2023-03-31T06:33:05;2.50;;;1.58;;
16460;SDS011;8341;42.048;24.650;2023-03-31T06:35:32;2.38;;;1.58;;
16460;SDS011;8341;42.048;24.650;2023-03-31T06:38:01;1.45;;;1.35;;
16460;SDS011;8341;42.048;24.650;2023-03-31T06:40:28;2.95;;;2.50;;
16460;SDS011;8341;42.048;24.650;2023-03-31T06:42:55;3.38;;;1.50;;
16460;SDS011;8341;42.048;24.650;2023-03-31T06:45:22;2.88;;;1.83;;
16460;SDS011;8341;42.048;24.650;2023-03-31T06:47:49;4.15;;;1.73;;
16460;SDS011;8341;42.048;24.650;2023-03-31T06:50:16;1.98;;;1.27;;
16460;SDS011;8341;42.048;24.650;2023-03-31T06:52:43;3.35;;;1.88;;
16460;SDS011;8341;42.048;24.650;2023-03-31T06:55:12;2.53;;;2.28;;
16460;SDS011;8341;42.048;24.650;2023-03-31T06:57:40;9.10;;;4.80;;
16460;SDS011;8341;42.048;24.650;2023-03-31T07:00:07;9.48;;;5.97;;
16460;SDS011;8341;42.048;24.650;2023-03-31T07:02:35;2.22;;;1.90;;
16460;SDS011;8341;42.048;24.650;2023-03-31T07:05:02;1.88;;;1.38;;
16460;SDS011;8341;42.048;24.650;2023-03-31T07:07:30;1.95;;;1.25;;
16460;SDS011;8341;42.048;24.650;2023-03-31T07:09:57;2.17;;;1.48;;
16460;SDS011;8341;42.048;24.650;2023-03-31T07:12:26;3.05;;;1.70;;
16460;SDS011;8341;42.048;24.650;2023-03-31T07:14:53;3.17;;;1.38;;
16460;SDS011;8341;42.048;24.650;2023-03-31T07:17:20;3.50;;;2.00;;
16460;SDS011;8341;42.048;24.650;2023-03-31T07:19:49;3.60;;;1.90;;
16460;SDS011;8341;42.048;24.650;2023-03-31T07:22:16;3.35;;;2.30;;
16460;SDS011;8341;42.048;24.650;2023-03-31T07:24:43;4.65;;;2.55;;
16460;SDS011;8341;42.048;24.650;2023-03-31T07:27:10;6.63;;;3.17;;
16460;SDS011;8341;42.048;24.650;2023-03-31T07:29:39;6.05;;;3.47;;
16460;SDS011;8341;42.048;24.650;2023-03-31T07:32:06;3.35;;;2.60;;
16460;SDS011;8341;42.048;24.650;2023-03-31T07:34:33;5.78;;;3.13;;
16460;SDS011;8341;42.048;24.650;2023-03-31T07:37:00;4.22;;;2.72;;
16460;SDS011;8341;42.048;24.650;2023-03-31T07:39:27;5.38;;;3.40;;
16460;SDS011;8341;42.048;24.650;2023-03-31T07:41:54;5.25;;;4.13;;
16460;SDS011;8341;42.048;24.650;2023-03-31T07:44:22;5.32;;;3.65;;
16460;SDS011;8341;42.048;24.650;2023-03-31T07:46:51;6.25;;;3.85;;
16460;SDS011;8341;42.048;24.650;2023-03-31T07:49:18;4.80;;;3.40;;
16460;SDS011;8341;42.048;24.650;2023-03-31T07:51:45;7.30;;;5.43;;
16460;SDS011;8341;42.048;24.650;2023-03-31T07:54:12;12.57;;;6.82;;
16460;SDS011;8341;42.048;24.650;2023-03-31T07:56:39;6.82;;;5.28;;
16460;SDS011;8341;42.048;24.650;2023-03-31T07:59:06;9.25;;;6.40;;
16460;SDS011;8341;42.048;24.650;2023-03-31T08:01:34;10.18;;;6.80;;
16460;SDS011;8341;42.048;24.650;2023-03-31T08:04:02;8.75;;;4.90;;
16460;SDS011;8341;42.048;24.650;2023-03-31T08:06:29;7.53;;;4.05;;
16460;SDS011;8341;42.048;24.650;2023-03-31T08:08:57;7.28;;;4.22;;
16460;SDS011;8341;42.048;24.650;2023-03-31T08:11:25;6.50;;;5.00;;
16460;SDS011;8341;42.048;24.650;2023-03-31T08:13:52;6.85;;;4.40;;
16460;SDS011;8341;42.048;24.650;2023-03-31T08:16:19;5.10;;;3.83;;
16460;SDS011;8341;42.048;24.650;2023-03-31T08:18:46;4.57;;;3.05;;
16460;SDS011;8341;42.048;24.650;2023-03-31T08:21:14;5.20;;;3.20;;
16460;SDS011;8341;42.048;24.650;2023-03-31T08:23:42;4.03;;;3.05;;
16460;SDS011;8341;42.048;24.650;2023-03-31T08:26:09;4.05;;;2.33;;
16460;SDS011;8341;42.048;24.650;2023-03-31T08:28:37;2.60;;;1.52;;
16460;SDS011;8341;42.048;24.650;2023-03-31T08:31:05;3.17;;;2.10;;
16460;SDS011;8341;42.048;24.650;2023-03-31T08:33:34;2.00;;;1.90;;
16460;SDS011;8341;42.048;24.650;2023-03-31T08:36:02;5.25;;;2.03;;
16460;SDS011;8341;42.048;24.650;2023-03-31T08:38:33;2.28;;;1.58;;
16460;SDS011;8341;42.048;24.650;2023-03-31T08:41:02;3.17;;;1.65;;
16460;SDS011;8341;42.048;24.650;2023-03-31T08:43:32;2.95;;;1.65;;
16460;SDS011;8341;42.048;24.650;2023-03-31T08:46:05;2.10;;;1.55;;
16460;SDS011;8341;42.048;24.650;2023-03-31T08:48:38;3.17;;;1.75;;
16460;SDS011;8341;42.048;24.650;2023-03-31T08:51:11;3.97;;;1.90;;
16460;SDS011;8341;42.048;24.650;2023-03-31T08:53:46;1.85;;;1.20;;
16460;SDS011;8341;42.048;24.650;2023-03-31T08:56:18;3.70;;;1.52;;
16460;SDS011;8341;42.048;24.650;2023-03-31T08:58:48;4.45;;;2.05;;
16460;SDS011;8341;42.048;24.650;2023-03-31T09:01:20;2.58;;;1.58;;
16460;SDS011;8341;42.048;24.650;2023-03-31T09:04:03;2.63;;;1.95;;
16460;SDS011;8341;42.048;24.650;2023-03-31T09:06:38;3.53;;;1.52;;
16460;SDS011;8341;42.048;24.650;2023-03-31T09:09:12;2.75;;;1.40;;
16460;SDS011;8341;42.048;24.650;2023-03-31T09:11:51;3.63;;;1.30;;
16460;SDS011;8341;42.048;24.650;2023-03-31T09:14:25;17.90;;;2.47;;
16460;SDS011;8341;42.048;24.650;2023-03-31T09:17:01;2.97;;;1.60;;
16460;SDS011;8341;42.048;24.650;2023-03-31T09:19:39;2.08;;;1.30;;
16460;SDS011;8341;42.048;24.650;2023-03-31T09:22:11;5.28;;;1.65;;
16460;SDS011;8341;42.048;24.650;2023-03-31T09:24:47;1.25;;;1.05;;
16460;SDS011;8341;42.048;24.650;2023-03-31T09:27:19;3.15;;;1.60;;
16460;SDS011;8341;42.048;24.650;2023-03-31T09:29:47;3.90;;;1.13;;
16460;SDS011;8341;42.048;24.650;2023-03-31T09:32:17;1.38;;;1.27;;
16460;SDS011;8341;42.048;24.650;2023-03-31T09:34:47;2.95;;;1.73;;
16460;SDS011;8341;42.048;24.650;2023-03-31T09:37:20;2.63;;;1.35;;
16460;SDS011;8341;42.048;24.650;2023-03-31T09:39:49;1.50;;;1.40;;
16460;SDS011;8341;42.048;24.650;2023-03-31T09:42:16;3.47;;;1.25;;
16460;SDS011;8341;42.048;24.650;2023-03-31T09:44:45;2.92;;;1.17;;
16460;SDS011;8341;42.048;24.650;2023-03-31T09:47:15;3.72;;;1.27;;
16460;SDS011;8341;42.048;24.650;2023-03-31T09:49:47;2.70;;;1.58;;
16460;SDS011;8341;42.048;24.650;2023-03-31T09:52:24;2.33;;;1.20;;
16460;SDS011;8341;42.048;24.650;2023-03-31T09:54:57;4.47;;;2.05;;
16460;SDS011;8341;42.048;24.650;2023-03-31T09:57:27;1.92;;;1.50;;
16460;SDS011;8341;42.048;24.650;2023-03-31T10:00:00;2.45;;;1.40;;
16460;SDS011;8341;42.048;24.650;2023-03-31T10:02:38;1.55;;;1.45;;
16460;SDS011;8341;42.048;24.650;2023-03-31T10:05:17;6.10;;;1.85;;
16460;SDS011;8341;42.048;24.650;2023-03-31T10:07:48;5.18;;;1.70;;
16460;SDS011;8341;42.048;24.650;2023-03-31T10:10:22;3.03;;;2.10;;
16460;SDS011;8341;42.048;24.650;2023-03-31T10:12:54;3.83;;;1.50;;
16460;SDS011;8341;42.048;24.650;2023-03-31T10:15:22;2.42;;;1.80;;
16460;SDS011;8341;42.048;24.650;2023-03-31T10:17:52;5.35;;;1.77;;
16460;SDS011;8341;42.048;24.650;2023-03-31T10:20:29;5.90;;;1.90;;
16460;SDS011;8341;42.048;24.650;2023-03-31T10:23:01;4.35;;;2.00;;
16460;SDS011;8341;42.048;24.650;2023-03-31T10:25:31;2.92;;;1.60;;
16460;SDS011;8341;42.048;24.650;2023-03-31T10:28:00;3.78;;;2.03;;
16460;SDS011;8341;42.048;24.650;2023-03-31T10:30:30;6.85;;;2.40;;
16460;SDS011;8341;42.048;24.650;2023-03-31T10:33:04;5.28;;;2.20;;
16460;SDS011;8341;42.048;24.650;2023-03-31T10:35:33;3.45;;;2.00;;
16460;SDS011;8341;42.048;24.650;2023-03-31T10:38:02;5.57;;;2.42;;
16460;SDS011;8341;42.048;24.650;2023-03-31T10:40:33;4.88;;;2.40;;
16460;SDS011;8341;42.048;24.650;2023-03-31T10:43:02;5.30;;;2.90;;
16460;SDS011;8341;42.048;24.650;2023-03-31T10:45:47;15.35;;;12.88;;
16460;SDS011;8341;42.048;24.650;2023-03-31T10:48:20;8.07;;;4.78;;
16460;SDS011;8341;42.048;24.650;2023-03-31T10:50:50;6.22;;;3.67;;
16460;SDS011;8341;42.048;24.650;2023-03-31T10:53:18;6.97;;;5.35;;
16460;SDS011;8341;42.048;24.650;2023-03-31T10:55:51;6.05;;;3.72;;
16460;SDS011;8341;42.048;24.650;2023-03-31T11:01:24;9.00;;;5.20;;
16460;SDS011;8341;42.048;24.650;2023-03-31T11:04:05;5.75;;;4.40;;
16460;SDS011;8341;42.048;24.650;2023-03-31T11:06:50;5.68;;;4.15;;
16460;SDS011;8341;42.048;24.650;2023-03-31T11:09:30;11.73;;;4.60;;
16460;SDS011;8341;42.048;24.650;2023-03-31T11:12:10;6.60;;;4.10;;
16460;SDS011;8341;42.048;24.650;2023-03-31T11:14:45;7.43;;;5.05;;
16460;SDS011;8341;42.048;24.650;2023-03-31T11:17:25;7.03;;;4.05;;
16460;SDS011;8341;42.048;24.650;2023-03-31T11:20:01;4.65;;;4.05;;
16460;SDS011;8341;42.048;24.650;2023-03-31T11:22:42;7.55;;;4.53;;
16460;SDS011;8341;42.048;24.650;2023-03-31T11:25:21;7.10;;;4.63;;
16460;SDS011;8341;42.048;24.650;2023-03-31T11:27:59;8.88;;;5.03;;
16460;SDS011;8341;42.048;24.650;2023-03-31T11:30:39;7.78;;;4.32;;
16460;SDS011;8341;42.048;24.650;2023-03-31T11:33:24;5.90;;;4.65;;
16460;SDS011;8341;42.048;24.650;2023-03-31T11:36:15;5.55;;;4.25;;
16460;SDS011;8341;42.048;24.650;2023-03-31T11:38:55;8.13;;;4.53;;
16460;SDS011;8341;42.048;24.650;2023-03-31T11:41:36;7.90;;;4.60;;
16460;SDS011;8341;42.048;24.650;2023-03-31T11:44:09;7.95;;;4.65;;
16460;SDS011;8341;42.048;24.650;2023-03-31T11:46:38;5.63;;;4.22;;
16460;SDS011;8341;42.048;24.650;2023-03-31T11:49:12;5.35;;;4.57;;
16460;SDS011;8341;42.048;24.650;2023-03-31T11:51:46;9.55;;;4.88;;
16460;SDS011;8341;42.048;24.650;2023-03-31T11:54:19;5.47;;;4.32;;
16460;SDS011;8341;42.048;24.650;2023-03-31T11:56:53;6.40;;;4.50;;
16460;SDS011;8341;42.048;24.650;2023-03-31T11:59:24;5.47;;;4.05;;
16460;SDS011;8341;42.048;24.650;2023-03-31T12:01:56;6.03;;;4.65;;
16460;SDS011;8341;42.048;24.650;2023-03-31T12:04:31;6.63;;;4.68;;
16460;SDS011;8341;42.048;24.650;2023-03-31T12:07:02;5.20;;;4.15;;
16460;SDS011;8341;42.048;24.650;2023-03-31T12:09:37;4.40;;;3.53;;
16460;SDS011;8341;42.048;24.650;2023-03-31T12:12:14;7.80;;;3.47;;
16460;SDS011;8341;42.048;24.650;2023-03-31T12:14:50;4.35;;;3.53;;
16460;SDS011;8341;42.048;24.650;2023-03-31T12:17:21;5.20;;;3.65;;
16460;SDS011;8341;42.048;24.650;2023-03-31T12:19:53;5.85;;;3.28;;
16460;SDS011;8341;42.048;24.650;2023-03-31T12:22:24;11.18;;;3.47;;
16460;SDS011;8341;42.048;24.650;2023-03-31T12:24:55;5.88;;;3.25;;
16460;SDS011;8341;42.048;24.650;2023-03-31T12:27:23;3.22;;;2.80;;
16460;SDS011;8341;42.048;24.650;2023-03-31T12:29:56;4.93;;;2.90;;
16460;SDS011;8341;42.048;24.650;2023-03-31T12:32:25;3.67;;;3.10;;
16460;SDS011;8341;42.048;24.650;2023-03-31T12:34:58;4.82;;;2.75;;
16460;SDS011;8341;42.048;24.650;2023-03-31T12:37:35;4.75;;;2.65;;
16460;SDS011;8341;42.048;24.650;2023-03-31T12:40:26;5.03;;;2.33;;
16460;SDS011;8341;42.048;24.650;2023-03-31T12:46:13;5.38;;;2.70;;
16460;SDS011;8341;42.048;24.650;2023-03-31T12:48:55;4.82;;;2.75;;
16460;SDS011;8341;42.048;24.650;2023-03-31T12:54:42;6.63;;;3.28;;
16460;SDS011;8341;42.048;24.650;2023-03-31T12:57:21;5.10;;;2.90;;
16460;SDS011;8341;42.048;24.650;2023-03-31T13:00:13;3.85;;;3.03;;
16460;SDS011;8341;42.048;24.650;2023-03-31T13:02:50;3.72;;;2.88;;
16460;SDS011;8341;42.048;24.650;2023-03-31T13:05:58;3.33;;;3.03;;
16460;SDS011;8341;42.048;24.650;2023-03-31T13:11:15;5.57;;;3.38;;
16460;SDS011;8341;42.048;24.650;2023-03-31T13:13:44;7.22;;;2.78;;
16460;SDS011;8341;42.048;24.650;2023-03-31T13:16:18;5.00;;;3.47;;
16460;SDS011;8341;42.048;24.650;2023-03-31T13:18:51;5.28;;;2.80;;
16460;SDS011;8341;42.048;24.650;2023-03-31T13:21:19;4.75;;;2.50;;
16460;SDS011;8341;42.048;24.650;2023-03-31T13:23:47;4.40;;;3.10;;
16460;SDS011;8341;42.048;24.650;2023-03-31T13:29:18;3.92;;;2.72;;
16460;SDS011;8341;42.048;24.650;2023-03-31T13:32:05;7.55;;;4.57;;
16460;SDS011;8341;42.048;24.650;2023-03-31T13:34:49;6.85;;;3.95;;
16460;SDS011;8341;42.048;24.650;2023-03-31T13:37:36;4.35;;;2.72;;
16460;SDS011;8341;42.048;24.650;2023-03-31T13:40:25;3.03;;;2.30;;
16460;SDS011;8341;42.048;24.650;2023-03-31T13:43:13;7.20;;;2.70;;
16460;SDS011;8341;42.048;24.650;2023-03-31T13:45:56;4.13;;;2.15;;
16460;SDS011;8341;42.048;24.650;2023-03-31T13:48:39;3.63;;;2.78;;
16460;SDS011;8341;42.048;24.650;2023-03-31T13:57:24;5.38;;;2.85;;
16460;SDS011;8341;42.048;24.650;2023-03-31T14:03:04;3.25;;;2.67;;
16460;SDS011;8341;42.048;24.650;2023-03-31T14:05:39;3.35;;;2.22;;
16460;SDS011;8341;42.048;24.650;2023-03-31T14:08:10;4.75;;;2.58;;
16460;SDS011;8341;42.048;24.650;2023-03-31T14:10:41;5.13;;;2.50;;
16460;SDS011;8341;42.048;24.650;2023-03-31T14:13:10;7.13;;;2.67;;
16460;SDS011;8341;42.048;24.650;2023-03-31T14:15:38;5.47;;;2.80;;
16460;SDS011;8341;42.048;24.650;2023-03-31T14:18:08;4.00;;;2.50;;
16460;SDS011;8341;42.048;24.650;2023-03-31T14:20:49;5.80;;;2.83;;
16460;SDS011;8341;42.048;24.650;2023-03-31T14:23:39;4.38;;;2.28;;
16460;SDS011;8341;42.048;24.650;2023-03-31T14:26:15;8.60;;;2.75;;
16460;SDS011;8341;42.048;24.650;2023-03-31T14:28:56;4.90;;;2.83;;
16460;SDS011;8341;42.048;24.650;2023-03-31T14:31:32;4.55;;;2.85;;
16460;SDS011;8341;42.048;24.650;2023-03-31T14:34:11;6.40;;;2.67;;
16460;SDS011;8341;42.048;24.650;2023-03-31T14:36:50;4.93;;;2.83;;
16460;SDS011;8341;42.048;24.650;2023-03-31T14:39:24;5.15;;;3.03;;
16460;SDS011;8341;42.048;24.650;2023-03-31T14:41:55;4.53;;;2.75;;
16460;SDS011;8341;42.048;24.650;2023-03-31T14:44:25;5.43;;;2.70;;
16460;SDS011;8341;42.048;24.650;2023-03-31T14:46:54;3.78;;;3.47;;
16460;SDS011;8341;42.048;24.650;2023-03-31T14:49:24;3.65;;;2.47;;
16460;SDS011;8341;42.048;24.650;2023-03-31T14:51:57;3.53;;;2.10;;
16460;SDS011;8341;42.048;24.650;2023-03-31T14:54:32;3.35;;;2.20;;
16460;SDS011;8341;42.048;24.650;2023-03-31T14:57:01;4.55;;;1.88;;
16460;SDS011;8341;42.048;24.650;2023-03-31T14:59:31;6.25;;;3.08;;
16460;SDS011;8341;42.048;24.650;2023-03-31T15:02:02;4.82;;;3.00;;
16460;SDS011;8341;42.048;24.650;2023-03-31T15:04:33;4.78;;;2.80;;
16460;SDS011;8341;42.048;24.650;2023-03-31T15:07:09;5.28;;;2.22;;
16460;SDS011;8341;42.048;24.650;2023-03-31T15:09:38;5.63;;;2.13;;
16460;SDS011;8341;42.048;24.650;2023-03-31T15:12:15;2.83;;;2.13;;
16460;SDS011;8341;42.048;24.650;2023-03-31T15:14:45;3.13;;;2.10;;
16460;SDS011;8341;42.048;24.650;2023-03-31T15:17:18;4.97;;;2.35;;
16460;SDS011;8341;42.048;24.650;2023-03-31T15:19:51;5.70;;;2.45;;
16460;SDS011;8341;42.048;24.650;2023-03-31T15:22:21;6.78;;;2.20;;
16460;SDS011;8341;42.048;24.650;2023-03-31T15:24:51;4.75;;;1.95;;
16460;SDS011;8341;42.048;24.650;2023-03-31T15:27:29;4.68;;;2.45;;
16460;SDS011;8341;42.048;24.650;2023-03-31T15:30:01;2.97;;;2.58;;
16460;SDS011;8341;42.048;24.650;2023-03-31T15:32:33;4.38;;;2.00;;
16460;SDS011;8341;42.048;24.650;2023-03-31T15:35:02;3.33;;;2.10;;
16460;SDS011;8341;42.048;24.650;2023-03-31T15:37:35;5.22;;;2.97;;
16460;SDS011;8341;42.048;24.650;2023-03-31T15:40:14;6.40;;;2.05;;
16460;SDS011;8341;42.048;24.650;2023-03-31T15:42:45;5.97;;;2.33;;
16460;SDS011;8341;42.048;24.650;2023-03-31T15:48:13;3.53;;;2.22;;
16460;SDS011;8341;42.048;24.650;2023-03-31T15:50:45;2.38;;;1.75;;
16460;SDS011;8341;42.048;24.650;2023-03-31T15:53:23;3.30;;;2.00;;
16460;SDS011;8341;42.048;24.650;2023-03-31T15:56:07;7.65;;;3.78;;
16460;SDS011;8341;42.048;24.650;2023-03-31T15:58:54;2.58;;;2.30;;